sensor_id;sensor_type;location;lat;lon;timestamp;pressure;altitude;pressure_sealevel;temperature;humidity
16016;BME280;8112;53.592;10.184;2022-07-23T00:05:10;101455.56;;;17.33;100.00
16016;BME280;8112;53.592;10.184;2022-07-23T00:10:16;101449.88;;;17.27;100.00
16016;BME280;8112;53.592;10.184;2022-07-23T00:15:34;101457.97;;;17.25;100.00
16016;BME280;8112;53.592;10.184;2022-07-23T00:20:39;101431.94;;;17.29;100.00
16016;BME280;8112;53.592;10.184;2022-07-23T00:25:43;101436.19;;;17.31;100.00
16016;BME280;8112;53.592;10.184;2022-07-23T00:31:02;101444.78;;;17.35;100.00
16016;BME280;8112;53.592;10.184;2022-07-23T00:36:16;101424.44;;;17.34;100.00
16016;BME280;8112;53.592;10.184;2022-07-23T00:41:50;101427.47;;;17.29;100.00
16016;BME280;8112;53.592;10.184;2022-07-23T00:47:03;101428.66;;;17.25;100.00
16016;BME280;8112;53.592;10.184;2022-07-23T00:52:06;101424.69;;;17.31;100.00
16016;BME280;8112;53.592;10.184;2022-07-23T00:57:14;101421.78;;;17.22;100.00
16016;BME280;8112;53.592;10.184;2022-07-23T01:02:32;101424.16;;;17.14;100.00
16016;BME280;8112;53.592;10.184;2022-07-23T01:07:47;101424.00;;;17.04;100.00
16016;BME280;8112;53.592;10.184;2022-07-23T01:13:09;101415.38;;;17.01;100.00
16016;BME280;8112;53.592;10.184;2022-07-23T01:18:20;101418.50;;;16.94;100.00
16016;BME280;8112;53.592;10.184;2022-07-23T01:23:33;101411.59;;;16.92;100.00
16016;BME280;8112;53.592;10.184;2022-07-23T01:28:40;101400.78;;;16.82;100.00
16016;BME280;8112;53.592;10.184;2022-07-23T01:33:55;101406.88;;;16.84;100.00
16016;BME280;8112;53.592;10.184;2022-07-23T01:39:18;101410.47;;;16.83;100.00
16016;BME280;8112;53.592;10.184;2022-07-23T01:44:34;101403.25;;;16.85;100.00
16016;BME280;8112;53.592;10.184;2022-07-23T01:49:58;101405.28;;;16.81;100.00
16016;BME280;8112;53.592;10.184;2022-07-23T01:55:52;101397.53;;;16.78;100.00
16016;BME280;8112;53.592;10.184;2022-07-23T02:01:02;101384.56;;;16.74;100.00
16016;BME280;8112;53.592;10.184;2022-07-23T02:06:16;101371.91;;;16.64;100.00
16016;BME280;8112;53.592;10.184;2022-07-23T02:11:21;101377.63;;;16.71;100.00
16016;BME280;8112;53.592;10.184;2022-07-23T02:16:24;101370.44;;;16.85;100.00
16016;BME280;8112;53.592;10.184;2022-07-23T02:21:25;101373.47;;;16.91;100.00
16016;BME280;8112;53.592;10.184;2022-07-23T02:26:28;101366.81;;;16.86;100.00
16016;BME280;8112;53.592;10.184;2022-07-23T02:31:51;101365.72;;;16.88;100.00
16016;BME280;8112;53.592;10.184;2022-07-23T02:36:56;101360.09;;;16.69;100.00
16016;BME280;8112;53.592;10.184;2022-07-23T02:42:10;101362.88;;;16.67;100.00
16016;BME280;8112;53.592;10.184;2022-07-23T02:47:22;101361.88;;;16.57;100.00
16016;BME280;8112;53.592;10.184;2022-07-23T02:52:27;101371.38;;;16.48;100.00
16016;BME280;8112;53.592;10.184;2022-07-23T02:57:30;101359.94;;;16.34;100.00
16016;BME280;8112;53.592;10.184;2022-07-23T03:02:32;101368.09;;;16.20;100.00
16016;BME280;8112;53.592;10.184;2022-07-23T03:07:40;101356.16;;;16.26;100.00
16016;BME280;8112;53.592;10.184;2022-07-23T03:12:46;101353.31;;;16.16;100.00
16016;BME280;8112;53.592;10.184;2022-07-23T03:17:49;101340.13;;;16.14;100.00
16016;BME280;8112;53.592;10.184;2022-07-23T03:22:56;101345.44;;;16.14;100.00
16016;BME280;8112;53.592;10.184;2022-07-23T03:28:01;101340.59;;;16.08;100.00
16016;BME280;8112;53.592;10.184;2022-07-23T03:33:04;101347.16;;;16.15;100.00
16016;BME280;8112;53.592;10.184;2022-07-23T03:38:12;101352.63;;;16.25;100.00
16016;BME280;8112;53.592;10.184;2022-07-23T03:43:16;101343.03;;;16.35;100.00
16016;BME280;8112;53.592;10.184;2022-07-23T03:48:19;101353.53;;;16.37;100.00
16016;BME280;8112;53.592;10.184;2022-07-23T03:53:33;101355.31;;;16.49;100.00
16016;BME280;8112;53.592;10.184;2022-07-23T03:58:58;101358.75;;;16.38;100.00
16016;BME280;8112;53.592;10.184;2022-07-23T04:04:02;101364.06;;;16.38;100.00
16016;BME280;8112;53.592;10.184;2022-07-23T04:09:08;101375.13;;;16.45;100.00
16016;BME280;8112;53.592;10.184;2022-07-23T04:14:16;101366.41;;;16.67;100.00
16016;BME280;8112;53.592;10.184;2022-07-23T04:19:24;101369.06;;;16.67;100.00
16016;BME280;8112;53.592;10.184;2022-07-23T04:24:40;101380.09;;;16.74;100.00
16016;BME280;8112;53.592;10.184;2022-07-23T04:29:44;101376.63;;;16.96;100.00
16016;BME280;8112;53.592;10.184;2022-07-23T04:34:49;101378.31;;;16.98;100.00
16016;BME280;8112;53.592;10.184;2022-07-23T04:39:52;101379.78;;;16.90;100.00
16016;BME280;8112;53.592;10.184;2022-07-23T04:45:01;101373.00;;;16.86;100.00
16016;BME280;8112;53.592;10.184;2022-07-23T04:50:04;101374.06;;;16.84;100.00
16016;BME280;8112;53.592;10.184;2022-07-23T04:55:07;101379.72;;;16.79;100.00
16016;BME280;8112;53.592;10.184;2022-07-23T05:00:22;101384.59;;;16.85;100.00
16016;BME280;8112;53.592;10.184;2022-07-23T05:05:28;101384.88;;;16.69;100.00
16016;BME280;8112;53.592;10.184;2022-07-23T05:10:42;101385.47;;;16.61;100.00
16016;BME280;8112;53.592;10.184;2022-07-23T05:15:45;101394.56;;;16.46;100.00
16016;BME280;8112;53.592;10.184;2022-07-23T05:20:50;101401.72;;;16.45;100.00
16016;BME280;8112;53.592;10.184;2022-07-23T05:25:57;101387.75;;;16.30;100.00
16016;BME280;8112;53.592;10.184;2022-07-23T05:31:01;101405.00;;;16.24;100.00
16016;BME280;8112;53.592;10.184;2022-07-23T05:36:05;101408.25;;;16.28;100.00
16016;BME280;8112;53.592;10.184;2022-07-23T05:41:31;101400.53;;;16.49;100.00
16016;BME280;8112;53.592;10.184;2022-07-23T05:46:36;101407.28;;;16.66;100.00
16016;BME280;8112;53.592;10.184;2022-07-23T05:51:54;101402.28;;;16.98;100.00
16016;BME280;8112;53.592;10.184;2022-07-23T05:57:06;101400.09;;;17.16;100.00
16016;BME280;8112;53.592;10.184;2022-07-23T06:02:13;101395.50;;;17.29;100.00
16016;BME280;8112;53.592;10.184;2022-07-23T06:07:15;101403.75;;;17.37;100.00
16016;BME280;8112;53.592;10.184;2022-07-23T06:12:17;101399.34;;;17.25;100.00
16016;BME280;8112;53.592;10.184;2022-07-23T06:17:21;101399.16;;;17.62;100.00
16016;BME280;8112;53.592;10.184;2022-07-23T06:22:22;101394.94;;;17.60;100.00
16016;BME280;8112;53.592;10.184;2022-07-23T06:27:24;101393.94;;;17.72;100.00
16016;BME280;8112;53.592;10.184;2022-07-23T06:32:27;101394.56;;;17.64;100.00
16016;BME280;8112;53.592;10.184;2022-07-23T06:37:29;101388.63;;;17.61;100.00
16016;BME280;8112;53.592;10.184;2022-07-23T06:42:30;101393.69;;;18.09;100.00
16016;BME280;8112;53.592;10.184;2022-07-23T06:47:37;101400.75;;;17.65;100.00
16016;BME280;8112;53.592;10.184;2022-07-23T06:52:50;101390.53;;;17.93;100.00
16016;BME280;8112;53.592;10.184;2022-07-23T06:57:52;101396.38;;;17.98;100.00
16016;BME280;8112;53.592;10.184;2022-07-23T07:02:59;101396.88;;;18.03;100.00
16016;BME280;8112;53.592;10.184;2022-07-23T07:08:00;101408.00;;;18.08;100.00
16016;BME280;8112;53.592;10.184;2022-07-23T07:13:02;101418.06;;;18.28;100.00
16016;BME280;8112;53.592;10.184;2022-07-23T07:18:05;101414.56;;;18.04;100.00
16016;BME280;8112;53.592;10.184;2022-07-23T07:23:10;101423.75;;;18.00;100.00
16016;BME280;8112;53.592;10.184;2022-07-23T07:28:21;101428.97;;;18.13;100.00
16016;BME280;8112;53.592;10.184;2022-07-23T07:33:29;101433.09;;;18.29;100.00
16016;BME280;8112;53.592;10.184;2022-07-23T07:38:34;101420.31;;;18.44;100.00
16016;BME280;8112;53.592;10.184;2022-07-23T07:43:35;101432.97;;;17.85;100.00
16016;BME280;8112;53.592;10.184;2022-07-23T07:48:41;101445.59;;;17.13;100.00
16016;BME280;8112;53.592;10.184;2022-07-23T07:53:43;101447.06;;;16.92;100.00
16016;BME280;8112;53.592;10.184;2022-07-23T07:58:44;101442.53;;;16.81;100.00
16016;BME280;8112;53.592;10.184;2022-07-23T08:03:47;101442.41;;;17.89;100.00
16016;BME280;8112;53.592;10.184;2022-07-23T08:08:49;101440.25;;;18.17;100.00
16016;BME280;8112;53.592;10.184;2022-07-23T08:13:51;101437.84;;;19.44;100.00
16016;BME280;8112;53.592;10.184;2022-07-23T08:18:54;101423.81;;;20.14;100.00
16016;BME280;8112;53.592;10.184;2022-07-23T08:23:55;101427.59;;;20.21;100.00
16016;BME280;8112;53.592;10.184;2022-07-23T08:28:57;101425.41;;;21.25;100.00
16016;BME280;8112;53.592;10.184;2022-07-23T08:34:00;101428.06;;;20.27;100.00
16016;BME280;8112;53.592;10.184;2022-07-23T08:39:02;101444.41;;;18.65;100.00
16016;BME280;8112;53.592;10.184;2022-07-23T08:44:07;101435.03;;;17.92;100.00
16016;BME280;8112;53.592;10.184;2022-07-23T08:49:13;101438.53;;;17.93;100.00
16016;BME280;8112;53.592;10.184;2022-07-23T08:54:14;101453.47;;;18.18;100.00
16016;BME280;8112;53.592;10.184;2022-07-23T08:59:19;101451.34;;;18.56;100.00
16016;BME280;8112;53.592;10.184;2022-07-23T09:04:22;101455.03;;;17.98;100.00
16016;BME280;8112;53.592;10.184;2022-07-23T09:09:24;101446.06;;;18.77;100.00
16016;BME280;8112;53.592;10.184;2022-07-23T09:14:43;101438.13;;;19.41;100.00
16016;BME280;8112;53.592;10.184;2022-07-23T09:19:49;101445.19;;;20.04;100.00
16016;BME280;8112;53.592;10.184;2022-07-23T09:25:09;101444.38;;;20.14;100.00
16016;BME280;8112;53.592;10.184;2022-07-23T09:30:12;101437.97;;;20.65;100.00
16016;BME280;8112;53.592;10.184;2022-07-23T09:35:15;101444.91;;;20.88;100.00
16016;BME280;8112;53.592;10.184;2022-07-23T09:40:17;101436.59;;;21.01;100.00
16016;BME280;8112;53.592;10.184;2022-07-23T09:45:18;101445.06;;;20.86;100.00
16016;BME280;8112;53.592;10.184;2022-07-23T09:50:21;101445.00;;;20.47;100.00
16016;BME280;8112;53.592;10.184;2022-07-23T09:55:31;101432.91;;;20.02;100.00
16016;BME280;8112;53.592;10.184;2022-07-23T10:00:36;101437.97;;;19.95;100.00
16016;BME280;8112;53.592;10.184;2022-07-23T10:05:46;101438.63;;;19.35;100.00
16016;BME280;8112;53.592;10.184;2022-07-23T10:11:07;101437.00;;;19.44;100.00
16016;BME280;8112;53.592;10.184;2022-07-23T10:16:20;101445.97;;;19.43;100.00
16016;BME280;8112;53.592;10.184;2022-07-23T10:21:30;101451.06;;;19.46;100.00
16016;BME280;8112;53.592;10.184;2022-07-23T10:26:44;101447.88;;;19.31;100.00
16016;BME280;8112;53.592;10.184;2022-07-23T10:32:00;101455.81;;;19.00;100.00
16016;BME280;8112;53.592;10.184;2022-07-23T10:37:14;101460.47;;;18.86;100.00
16016;BME280;8112;53.592;10.184;2022-07-23T10:42:19;101463.97;;;18.87;100.00
16016;BME280;8112;53.592;10.184;2022-07-23T10:47:27;101470.63;;;19.68;100.00
16016;BME280;8112;53.592;10.184;2022-07-23T10:53:16;101469.56;;;20.72;100.00
16016;BME280;8112;53.592;10.184;2022-07-23T10:58:45;101458.41;;;20.76;100.00
16016;BME280;8112;53.592;10.184;2022-07-23T11:03:57;101464.91;;;20.13;100.00
16016;BME280;8112;53.592;10.184;2022-07-23T11:09:27;101470.19;;;19.93;100.00
16016;BME280;8112;53.592;10.184;2022-07-23T11:14:59;101471.63;;;20.48;100.00
16016;BME280;8112;53.592;10.184;2022-07-23T11:20:18;101475.69;;;20.43;100.00
16016;BME280;8112;53.592;10.184;2022-07-23T11:25:34;101470.31;;;20.23;100.00
16016;BME280;8112;53.592;10.184;2022-07-23T11:30:41;101485.41;;;19.72;100.00
16016;BME280;8112;53.592;10.184;2022-07-23T11:35:47;101476.09;;;19.45;100.00
16016;BME280;8112;53.592;10.184;2022-07-23T11:40:57;101477.66;;;19.69;100.00
16016;BME280;8112;53.592;10.184;2022-07-23T11:45:59;101472.09;;;20.13;100.00
16016;BME280;8112;53.592;10.184;2022-07-23T11:51:24;101465.84;;;20.33;100.00
16016;BME280;8112;53.592;10.184;2022-07-23T11:56:27;101473.91;;;20.63;100.00
16016;BME280;8112;53.592;10.184;2022-07-23T12:01:38;101466.63;;;20.95;100.00
16016;BME280;8112;53.592;10.184;2022-07-23T12:06:56;101472.41;;;21.10;100.00
16016;BME280;8112;53.592;10.184;2022-07-23T12:12:06;101479.41;;;21.50;100.00
16016;BME280;8112;53.592;10.184;2022-07-23T12:17:11;101474.63;;;21.34;100.00
16016;BME280;8112;53.592;10.184;2022-07-23T12:22:15;101478.75;;;21.18;100.00
16016;BME280;8112;53.592;10.184;2022-07-23T12:27:20;101471.56;;;21.09;100.00
16016;BME280;8112;53.592;10.184;2022-07-23T12:32:28;101477.03;;;21.27;100.00
16016;BME280;8112;53.592;10.184;2022-07-23T12:37:31;101483.63;;;21.53;100.00
16016;BME280;8112;53.592;10.184;2022-07-23T12:42:42;101492.59;;;21.24;100.00
16016;BME280;8112;53.592;10.184;2022-07-23T12:47:52;101484.81;;;21.01;100.00
16016;BME280;8112;53.592;10.184;2022-07-23T12:53:07;101484.25;;;20.87;100.00
16016;BME280;8112;53.592;10.184;2022-07-23T12:58:19;101476.31;;;21.35;100.00
16016;BME280;8112;53.592;10.184;2022-07-23T13:03:35;101496.19;;;21.52;100.00
16016;BME280;8112;53.592;10.184;2022-07-23T13:08:39;101498.63;;;21.26;100.00
16016;BME280;8112;53.592;10.184;2022-07-23T13:13:42;101495.53;;;21.01;100.00
16016;BME280;8112;53.592;10.184;2022-07-23T13:18:44;101508.91;;;21.40;100.00
16016;BME280;8112;53.592;10.184;2022-07-23T13:23:48;101502.25;;;21.64;100.00
16016;BME280;8112;53.592;10.184;2022-07-23T13:28:52;101497.97;;;21.81;100.00
16016;BME280;8112;53.592;10.184;2022-07-23T13:33:53;101506.09;;;21.42;100.00
16016;BME280;8112;53.592;10.184;2022-07-23T13:38:58;101509.19;;;21.37;100.00
16016;BME280;8112;53.592;10.184;2022-07-23T13:44:01;101511.84;;;21.47;100.00
16016;BME280;8112;53.592;10.184;2022-07-23T13:49:02;101512.47;;;21.01;100.00
16016;BME280;8112;53.592;10.184;2022-07-23T13:54:04;101519.84;;;20.58;100.00
16016;BME280;8112;53.592;10.184;2022-07-23T13:59:10;101515.50;;;20.77;100.00
16016;BME280;8112;53.592;10.184;2022-07-23T14:04:15;101522.31;;;20.81;100.00
16016;BME280;8112;53.592;10.184;2022-07-23T14:09:19;101525.59;;;20.44;100.00
16016;BME280;8112;53.592;10.184;2022-07-23T14:14:22;101522.75;;;20.86;100.00
16016;BME280;8112;53.592;10.184;2022-07-23T14:19:25;101526.00;;;21.00;100.00
16016;BME280;8112;53.592;10.184;2022-07-23T14:24:27;101515.84;;;20.93;100.00
16016;BME280;8112;53.592;10.184;2022-07-23T14:29:30;101542.94;;;21.00;100.00
16016;BME280;8112;53.592;10.184;2022-07-23T14:34:37;101534.00;;;20.80;100.00
16016;BME280;8112;53.592;10.184;2022-07-23T14:39:41;101529.59;;;20.79;100.00
16016;BME280;8112;53.592;10.184;2022-07-23T14:44:48;101539.25;;;21.11;100.00
16016;BME280;8112;53.592;10.184;2022-07-23T14:49:49;101541.22;;;21.48;100.00
16016;BME280;8112;53.592;10.184;2022-07-23T14:54:51;101539.84;;;21.05;100.00
16016;BME280;8112;53.592;10.184;2022-07-23T14:59:56;101538.56;;;20.89;100.00
16016;BME280;8112;53.592;10.184;2022-07-23T15:04:58;101543.38;;;20.64;100.00
16016;BME280;8112;53.592;10.184;2022-07-23T15:10:01;101543.50;;;20.53;100.00
16016;BME280;8112;53.592;10.184;2022-07-23T15:15:10;101540.50;;;20.36;100.00
16016;BME280;8112;53.592;10.184;2022-07-23T15:20:12;101546.38;;;20.30;100.00
16016;BME280;8112;53.592;10.184;2022-07-23T15:25:18;101550.28;;;20.16;100.00
16016;BME280;8112;53.592;10.184;2022-07-23T15:30:23;101557.72;;;20.13;100.00
16016;BME280;8112;53.592;10.184;2022-07-23T15:35:33;101542.81;;;20.51;100.00
16016;BME280;8112;53.592;10.184;2022-07-23T15:40:34;101551.22;;;20.36;100.00
16016;BME280;8112;53.592;10.184;2022-07-23T15:45:47;101550.66;;;20.12;100.00
16016;BME280;8112;53.592;10.184;2022-07-23T15:50:51;101561.16;;;20.25;100.00
16016;BME280;8112;53.592;10.184;2022-07-23T15:55:53;101553.09;;;20.15;100.00
16016;BME280;8112;53.592;10.184;2022-07-23T16:01:04;101552.59;;;20.31;100.00
16016;BME280;8112;53.592;10.184;2022-07-23T16:06:07;101550.09;;;20.49;100.00
16016;BME280;8112;53.592;10.184;2022-07-23T16:11:09;101559.56;;;20.12;100.00
16016;BME280;8112;53.592;10.184;2022-07-23T16:16:12;101563.94;;;20.13;100.00
16016;BME280;8112;53.592;10.184;2022-07-23T16:21:20;101552.88;;;20.28;100.00
16016;BME280;8112;53.592;10.184;2022-07-23T16:26:22;101545.50;;;20.20;100.00
16016;BME280;8112;53.592;10.184;2022-07-23T16:31:32;101547.94;;;20.02;100.00
16016;BME280;8112;53.592;10.184;2022-07-23T16:36:37;101546.00;;;20.45;100.00
16016;BME280;8112;53.592;10.184;2022-07-23T16:41:40;101544.72;;;20.80;100.00
16016;BME280;8112;53.592;10.184;2022-07-23T16:46:49;101549.66;;;20.44;100.00
16016;BME280;8112;53.592;10.184;2022-07-23T16:51:55;101543.13;;;19.96;100.00
16016;BME280;8112;53.592;10.184;2022-07-23T16:57:09;101551.41;;;20.14;100.00
16016;BME280;8112;53.592;10.184;2022-07-23T17:02:35;101544.63;;;19.67;100.00
16016;BME280;8112;53.592;10.184;2022-07-23T17:07:50;101543.69;;;19.57;100.00
16016;BME280;8112;53.592;10.184;2022-07-23T17:13:14;101554.66;;;19.54;100.00
16016;BME280;8112;53.592;10.184;2022-07-23T17:18:18;101554.25;;;19.37;100.00
16016;BME280;8112;53.592;10.184;2022-07-23T17:23:20;101555.44;;;19.44;100.00
16016;BME280;8112;53.592;10.184;2022-07-23T17:28:22;101549.31;;;19.54;100.00
16016;BME280;8112;53.592;10.184;2022-07-23T17:33:25;101553.91;;;19.63;100.00
16016;BME280;8112;53.592;10.184;2022-07-23T17:38:26;101558.69;;;19.48;100.00
16016;BME280;8112;53.592;10.184;2022-07-23T17:43:37;101561.34;;;19.27;100.00
16016;BME280;8112;53.592;10.184;2022-07-23T17:48:42;101568.16;;;19.19;100.00
16016;BME280;8112;53.592;10.184;2022-07-23T17:53:44;101579.75;;;19.08;100.00
16016;BME280;8112;53.592;10.184;2022-07-23T17:58:46;101584.81;;;19.23;100.00
16016;BME280;8112;53.592;10.184;2022-07-23T18:03:49;101581.41;;;19.21;100.00
16016;BME280;8112;53.592;10.184;2022-07-23T18:08:51;101583.09;;;19.22;100.00
16016;BME280;8112;53.592;10.184;2022-07-23T18:13:52;101585.09;;;19.08;100.00
16016;BME280;8112;53.592;10.184;2022-07-23T18:18:55;101592.16;;;18.87;100.00
16016;BME280;8112;53.592;10.184;2022-07-23T18:23:57;101599.81;;;18.80;100.00
16016;BME280;8112;53.592;10.184;2022-07-23T18:28:59;101601.28;;;18.61;100.00
16016;BME280;8112;53.592;10.184;2022-07-23T18:34:02;101605.63;;;18.28;100.00
16016;BME280;8112;53.592;10.184;2022-07-23T18:39:03;101605.28;;;18.21;100.00
16016;BME280;8112;53.592;10.184;2022-07-23T18:44:10;101619.22;;;18.14;100.00
16016;BME280;8112;53.592;10.184;2022-07-23T18:49:15;101603.44;;;18.11;100.00
16016;BME280;8112;53.592;10.184;2022-07-23T18:54:17;101611.41;;;17.99;100.00
16016;BME280;8112;53.592;10.184;2022-07-23T18:59:21;101611.28;;;18.01;100.00
16016;BME280;8112;53.592;10.184;2022-07-23T19:04:29;101610.91;;;17.94;100.00
16016;BME280;8112;53.592;10.184;2022-07-23T19:09:30;101623.81;;;17.76;100.00
16016;BME280;8112;53.592;10.184;2022-07-23T19:14:35;101626.47;;;17.76;100.00
16016;BME280;8112;53.592;10.184;2022-07-23T19:19:40;101620.59;;;17.59;100.00
16016;BME280;8112;53.592;10.184;2022-07-23T19:24:42;101629.50;;;17.47;100.00
16016;BME280;8112;53.592;10.184;2022-07-23T19:29:45;101632.53;;;17.42;100.00
16016;BME280;8112;53.592;10.184;2022-07-23T19:34:48;101634.16;;;17.32;100.00
16016;BME280;8112;53.592;10.184;2022-07-23T19:39:51;101634.72;;;17.24;100.00
16016;BME280;8112;53.592;10.184;2022-07-23T19:44:53;101630.13;;;17.26;100.00
16016;BME280;8112;53.592;10.184;2022-07-23T19:49:59;101639.66;;;17.17;100.00
16016;BME280;8112;53.592;10.184;2022-07-23T19:55:00;101636.00;;;17.18;100.00
16016;BME280;8112;53.592;10.184;2022-07-23T20:00:04;101637.69;;;16.95;100.00
16016;BME280;8112;53.592;10.184;2022-07-23T20:05:11;101642.59;;;16.88;100.00
16016;BME280;8112;53.592;10.184;2022-07-23T20:10:19;101644.69;;;16.83;100.00
16016;BME280;8112;53.592;10.184;2022-07-23T20:15:22;101653.66;;;16.82;100.00
16016;BME280;8112;53.592;10.184;2022-07-23T20:20:25;101648.69;;;16.77;100.00
16016;BME280;8112;53.592;10.184;2022-07-23T20:25:26;101645.16;;;16.77;100.00
16016;BME280;8112;53.592;10.184;2022-07-23T20:30:28;101649.63;;;16.63;100.00
16016;BME280;8112;53.592;10.184;2022-07-23T20:35:31;101646.66;;;16.55;100.00
16016;BME280;8112;53.592;10.184;2022-07-23T20:40:34;101641.44;;;16.53;100.00
16016;BME280;8112;53.592;10.184;2022-07-23T20:45:36;101640.19;;;16.46;100.00
16016;BME280;8112;53.592;10.184;2022-07-23T20:50:39;101649.88;;;16.34;100.00
16016;BME280;8112;53.592;10.184;2022-07-23T20:55:41;101656.25;;;16.19;100.00
16016;BME280;8112;53.592;10.184;2022-07-23T21:00:42;101661.03;;;16.14;100.00
16016;BME280;8112;53.592;10.184;2022-07-23T21:05:46;101669.00;;;16.14;100.00
16016;BME280;8112;53.592;10.184;2022-07-23T21:11:05;101662.84;;;15.86;100.00
16016;BME280;8112;53.592;10.184;2022-07-23T21:16:07;101664.72;;;15.71;100.00
16016;BME280;8112;53.592;10.184;2022-07-23T21:21:16;101668.38;;;15.55;100.00
16016;BME280;8112;53.592;10.184;2022-07-23T21:26:19;101679.00;;;15.55;100.00
16016;BME280;8112;53.592;10.184;2022-07-23T21:31:26;101681.13;;;15.50;100.00
16016;BME280;8112;53.592;10.184;2022-07-23T21:36:29;101680.13;;;15.38;100.00
16016;BME280;8112;53.592;10.184;2022-07-23T21:41:32;101682.13;;;15.34;100.00
16016;BME280;8112;53.592;10.184;2022-07-23T21:46:34;101685.31;;;15.39;100.00
16016;BME280;8112;53.592;10.184;2022-07-23T21:51:43;101684.97;;;15.31;100.00
16016;BME280;8112;53.592;10.184;2022-07-23T21:56:45;101687.16;;;15.24;100.00
16016;BME280;8112;53.592;10.184;2022-07-23T22:01:47;101696.94;;;15.09;100.00
16016;BME280;8112;53.592;10.184;2022-07-23T22:06:50;101706.91;;;15.06;100.00
16016;BME280;8112;53.592;10.184;2022-07-23T22:11:51;101700.72;;;15.05;100.00
16016;BME280;8112;53.592;10.184;2022-07-23T22:16:53;101702.06;;;14.98;100.00
16016;BME280;8112;53.592;10.184;2022-07-23T22:21:56;101694.94;;;14.99;100.00
16016;BME280;8112;53.592;10.184;2022-07-23T22:26:58;101700.38;;;14.82;100.00
16016;BME280;8112;53.592;10.184;2022-07-23T22:32:00;101696.47;;;14.74;100.00
16016;BME280;8112;53.592;10.184;2022-07-23T22:37:03;101701.59;;;14.77;100.00
16016;BME280;8112;53.592;10.184;2022-07-23T22:42:04;101695.28;;;14.63;100.00
16016;BME280;8112;53.592;10.184;2022-07-23T22:47:06;101698.81;;;14.64;100.00
16016;BME280;8112;53.592;10.184;2022-07-23T22:52:17;101692.66;;;14.49;100.00
16016;BME280;8112;53.592;10.184;2022-07-23T22:57:19;101697.78;;;14.66;100.00
16016;BME280;8112;53.592;10.184;2022-07-23T23:02:20;101701.19;;;14.68;100.00
16016;BME280;8112;53.592;10.184;2022-07-23T23:07:23;101700.66;;;14.78;100.00
16016;BME280;8112;53.592;10.184;2022-07-23T23:12:25;101691.00;;;14.91;100.00
16016;BME280;8112;53.592;10.184;2022-07-23T23:17:26;101691.38;;;14.85;100.00
16016;BME280;8112;53.592;10.184;2022-07-23T23:22:33;101695.59;;;14.59;100.00
16016;BME280;8112;53.592;10.184;2022-07-23T23:27:34;101702.81;;;14.71;100.00
16016;BME280;8112;53.592;10.184;2022-07-23T23:32:36;101701.91;;;14.42;100.00
16016;BME280;8112;53.592;10.184;2022-07-23T23:37:39;101704.69;;;14.09;100.00
16016;BME280;8112;53.592;10.184;2022-07-23T23:42:44;101708.22;;;13.78;100.00
16016;BME280;8112;53.592;10.184;2022-07-23T23:47:46;101719.28;;;13.86;100.00
16016;BME280;8112;53.592;10.184;2022-07-23T23:52:49;101709.94;;;13.95;100.00
16016;BME280;8112;53.592;10.184;2022-07-23T23:57:50;101702.34;;;14.19;100.00
